sensor_id;sensor_type;location;lat;lon;timestamp;P1;durP1;ratioP1;P2;durP2;ratioP2
22026;SDS011;11177;50.966;10.070;2023-09-12T00:00:16;16.02;;;8.02;;
22026;SDS011;11177;50.966;10.070;2023-09-12T00:02:43;18.42;;;8.02;;
22026;SDS011;11177;50.966;10.070;2023-09-12T00:05:10;17.05;;;7.68;;
22026;SDS011;11177;50.966;10.070;2023-09-12T00:07:39;15.30;;;7.80;;
22026;SDS011;11177;50.966;10.070;2023-09-12T00:10:07;14.48;;;8.00;;
22026;SDS011;11177;50.966;10.070;2023-09-12T00:12:37;11.85;;;7.20;;
22026;SDS011;11177;50.966;10.070;2023-09-12T00:15:05;12.43;;;6.47;;
22026;SDS011;11177;50.966;10.070;2023-09-12T00:17:33;11.30;;;6.78;;
22026;SDS011;11177;50.966;10.070;2023-09-12T00:20:00;9.13;;;5.93;;
22026;SDS011;11177;50.966;10.070;2023-09-12T00:22:27;10.48;;;5.70;;
22026;SDS011;11177;50.966;10.070;2023-09-12T00:24:54;8.70;;;5.78;;
22026;SDS011;11177;50.966;10.070;2023-09-12T00:27:21;14.68;;;5.75;;
22026;SDS011;11177;50.966;10.070;2023-09-12T00:29:51;13.05;;;6.30;;
22026;SDS011;11177;50.966;10.070;2023-09-12T00:32:21;13.88;;;6.65;;
22026;SDS011;11177;50.966;10.070;2023-09-12T00:34:48;11.95;;;5.97;;
22026;SDS011;11177;50.966;10.070;2023-09-12T00:37:15;14.82;;;6.55;;
22026;SDS011;11177;50.966;10.070;2023-09-12T00:39:42;11.68;;;6.13;;
22026;SDS011;11177;50.966;10.070;2023-09-12T00:42:09;10.02;;;5.88;;
22026;SDS011;11177;50.966;10.070;2023-09-12T00:44:37;13.43;;;6.07;;
22026;SDS011;11177;50.966;10.070;2023-09-12T00:47:04;11.18;;;6.20;;
22026;SDS011;11177;50.966;10.070;2023-09-12T00:49:32;11.27;;;6.07;;
22026;SDS011;11177;50.966;10.070;2023-09-12T00:51:59;9.73;;;6.15;;
22026;SDS011;11177;50.966;10.070;2023-09-12T00:54:28;10.90;;;5.85;;
22026;SDS011;11177;50.966;10.070;2023-09-12T00:56:55;17.95;;;7.90;;
22026;SDS011;11177;50.966;10.070;2023-09-12T00:59:23;15.32;;;8.25;;
22026;SDS011;11177;50.966;10.070;2023-09-12T01:01:50;21.37;;;8.67;;
22026;SDS011;11177;50.966;10.070;2023-09-12T01:04:17;16.48;;;7.93;;
22026;SDS011;11177;50.966;10.070;2023-09-12T01:07:00;18.85;;;8.40;;
22026;SDS011;11177;50.966;10.070;2023-09-12T01:09:27;15.50;;;7.82;;
22026;SDS011;11177;50.966;10.070;2023-09-12T01:11:54;16.40;;;7.70;;
22026;SDS011;11177;50.966;10.070;2023-09-12T01:14:24;14.00;;;7.95;;
22026;SDS011;11177;50.966;10.070;2023-09-12T01:16:51;18.73;;;8.57;;
22026;SDS011;11177;50.966;10.070;2023-09-12T01:19:18;15.43;;;7.38;;
22026;SDS011;11177;50.966;10.070;2023-09-12T01:24:54;12.75;;;6.95;;
22026;SDS011;11177;50.966;10.070;2023-09-12T01:27:48;7.50;;;5.68;;
22026;SDS011;11177;50.966;10.070;2023-09-12T01:30:17;7.07;;;5.57;;
22026;SDS011;11177;50.966;10.070;2023-09-12T01:32:44;7.07;;;4.10;;
22026;SDS011;11177;50.966;10.070;2023-09-12T01:35:11;8.90;;;5.88;;
22026;SDS011;11177;50.966;10.070;2023-09-12T01:37:38;14.13;;;7.20;;
22026;SDS011;11177;50.966;10.070;2023-09-12T01:40:06;11.68;;;7.15;;
22026;SDS011;11177;50.966;10.070;2023-09-12T01:42:37;13.65;;;6.95;;
22026;SDS011;11177;50.966;10.070;2023-09-12T01:45:08;12.10;;;7.28;;
22026;SDS011;11177;50.966;10.070;2023-09-12T01:47:36;11.00;;;6.80;;
22026;SDS011;11177;50.966;10.070;2023-09-12T01:50:03;10.48;;;6.72;;
22026;SDS011;11177;50.966;10.070;2023-09-12T01:52:32;14.50;;;6.32;;
22026;SDS011;11177;50.966;10.070;2023-09-12T01:54:59;13.85;;;7.05;;
22026;SDS011;11177;50.966;10.070;2023-09-12T01:57:26;13.82;;;7.25;;
22026;SDS011;11177;50.966;10.070;2023-09-12T01:59:53;15.48;;;7.10;;
22026;SDS011;11177;50.966;10.070;2023-09-12T02:02:20;13.80;;;7.53;;
22026;SDS011;11177;50.966;10.070;2023-09-12T02:04:52;10.73;;;7.65;;
22026;SDS011;11177;50.966;10.070;2023-09-12T02:07:32;12.97;;;6.73;;
22026;SDS011;11177;50.966;10.070;2023-09-12T02:10:03;12.63;;;7.80;;
22026;SDS011;11177;50.966;10.070;2023-09-12T02:12:31;15.13;;;8.20;;
22026;SDS011;11177;50.966;10.070;2023-09-12T02:14:58;15.30;;;8.65;;
22026;SDS011;11177;50.966;10.070;2023-09-12T02:17:25;15.23;;;8.80;;
22026;SDS011;11177;50.966;10.070;2023-09-12T02:19:52;13.82;;;8.40;;
22026;SDS011;11177;50.966;10.070;2023-09-12T02:22:19;18.75;;;8.38;;
22026;SDS011;11177;50.966;10.070;2023-09-12T02:24:46;15.55;;;7.75;;
22026;SDS011;11177;50.966;10.070;2023-09-12T02:27:13;16.48;;;8.00;;
22026;SDS011;11177;50.966;10.070;2023-09-12T02:29:40;16.65;;;8.10;;
22026;SDS011;11177;50.966;10.070;2023-09-12T02:32:08;14.57;;;7.93;;
22026;SDS011;11177;50.966;10.070;2023-09-12T02:34:35;14.68;;;7.45;;
22026;SDS011;11177;50.966;10.070;2023-09-12T02:37:02;16.60;;;7.88;;
22026;SDS011;11177;50.966;10.070;2023-09-12T02:39:28;12.95;;;7.90;;
22026;SDS011;11177;50.966;10.070;2023-09-12T02:41:55;12.48;;;7.65;;
22026;SDS011;11177;50.966;10.070;2023-09-12T02:44:22;11.40;;;7.00;;
22026;SDS011;11177;50.966;10.070;2023-09-12T02:46:50;15.70;;;7.45;;
22026;SDS011;11177;50.966;10.070;2023-09-12T02:49:17;14.73;;;7.15;;
22026;SDS011;11177;50.966;10.070;2023-09-12T02:51:45;12.55;;;7.32;;
22026;SDS011;11177;50.966;10.070;2023-09-12T02:54:12;10.77;;;7.10;;
22026;SDS011;11177;50.966;10.070;2023-09-12T02:56:39;12.02;;;6.60;;
22026;SDS011;11177;50.966;10.070;2023-09-12T02:59:06;12.30;;;7.40;;
22026;SDS011;11177;50.966;10.070;2023-09-12T03:01:33;10.52;;;7.30;;
22026;SDS011;11177;50.966;10.070;2023-09-12T03:04:00;17.25;;;7.18;;
22026;SDS011;11177;50.966;10.070;2023-09-12T03:06:28;13.52;;;8.43;;
22026;SDS011;11177;50.966;10.070;2023-09-12T03:08:55;14.30;;;8.20;;
22026;SDS011;11177;50.966;10.070;2023-09-12T03:11:22;16.90;;;8.45;;
22026;SDS011;11177;50.966;10.070;2023-09-12T03:13:49;16.08;;;8.20;;
22026;SDS011;11177;50.966;10.070;2023-09-12T03:16:16;14.27;;;8.10;;
22026;SDS011;11177;50.966;10.070;2023-09-12T03:18:43;17.17;;;7.40;;
22026;SDS011;11177;50.966;10.070;2023-09-12T03:21:10;11.63;;;7.63;;
22026;SDS011;11177;50.966;10.070;2023-09-12T03:23:37;12.65;;;7.47;;
22026;SDS011;11177;50.966;10.070;2023-09-12T03:26:04;14.77;;;8.00;;
22026;SDS011;11177;50.966;10.070;2023-09-12T03:28:32;16.95;;;7.90;;
22026;SDS011;11177;50.966;10.070;2023-09-12T03:31:12;12.57;;;7.65;;
22026;SDS011;11177;50.966;10.070;2023-09-12T03:33:41;14.82;;;8.10;;
22026;SDS011;11177;50.966;10.070;2023-09-12T03:36:10;12.57;;;7.70;;
22026;SDS011;11177;50.966;10.070;2023-09-12T03:38:37;10.80;;;7.50;;
22026;SDS011;11177;50.966;10.070;2023-09-12T03:41:04;17.05;;;8.15;;
22026;SDS011;11177;50.966;10.070;2023-09-12T03:43:32;14.48;;;7.85;;
22026;SDS011;11177;50.966;10.070;2023-09-12T03:45:59;16.63;;;7.38;;
22026;SDS011;11177;50.966;10.070;2023-09-12T03:48:26;12.15;;;6.88;;
22026;SDS011;11177;50.966;10.070;2023-09-12T03:50:53;11.75;;;6.57;;
22026;SDS011;11177;50.966;10.070;2023-09-12T03:53:20;9.63;;;6.78;;
22026;SDS011;11177;50.966;10.070;2023-09-12T03:55:47;13.18;;;6.40;;
22026;SDS011;11177;50.966;10.070;2023-09-12T03:58:14;7.80;;;6.03;;
22026;SDS011;11177;50.966;10.070;2023-09-12T04:00:40;10.13;;;6.72;;
22026;SDS011;11177;50.966;10.070;2023-09-12T04:03:08;15.57;;;7.55;;
22026;SDS011;11177;50.966;10.070;2023-09-12T04:05:35;13.35;;;7.70;;
22026;SDS011;11177;50.966;10.070;2023-09-12T04:08:02;13.38;;;7.32;;
22026;SDS011;11177;50.966;10.070;2023-09-12T04:10:29;11.77;;;7.40;;
22026;SDS011;11177;50.966;10.070;2023-09-12T04:12:56;14.70;;;7.40;;
22026;SDS011;11177;50.966;10.070;2023-09-12T04:15:23;12.52;;;7.85;;
22026;SDS011;11177;50.966;10.070;2023-09-12T04:17:49;11.30;;;7.40;;
22026;SDS011;11177;50.966;10.070;2023-09-12T04:20:16;19.15;;;8.30;;
22026;SDS011;11177;50.966;10.070;2023-09-12T04:22:43;13.65;;;7.72;;
22026;SDS011;11177;50.966;10.070;2023-09-12T04:25:10;14.35;;;8.07;;
22026;SDS011;11177;50.966;10.070;2023-09-12T04:27:37;11.85;;;7.90;;
22026;SDS011;11177;50.966;10.070;2023-09-12T04:30:04;12.10;;;8.15;;
22026;SDS011;11177;50.966;10.070;2023-09-12T04:32:32;16.38;;;8.20;;
22026;SDS011;11177;50.966;10.070;2023-09-12T04:34:59;12.05;;;8.18;;
22026;SDS011;11177;50.966;10.070;2023-09-12T04:37:26;11.75;;;7.47;;
22026;SDS011;11177;50.966;10.070;2023-09-12T04:39:53;13.80;;;8.00;;
22026;SDS011;11177;50.966;10.070;2023-09-12T04:42:20;12.93;;;8.13;;
22026;SDS011;11177;50.966;10.070;2023-09-12T04:44:47;13.73;;;6.93;;
22026;SDS011;11177;50.966;10.070;2023-09-12T04:47:15;16.75;;;6.60;;
22026;SDS011;11177;50.966;10.070;2023-09-12T04:49:43;9.85;;;5.85;;
22026;SDS011;11177;50.966;10.070;2023-09-12T04:52:11;7.68;;;6.03;;
22026;SDS011;11177;50.966;10.070;2023-09-12T04:54:38;7.80;;;5.82;;
22026;SDS011;11177;50.966;10.070;2023-09-12T04:57:05;9.57;;;6.35;;
22026;SDS011;11177;50.966;10.070;2023-09-12T04:59:32;17.13;;;7.10;;
22026;SDS011;11177;50.966;10.070;2023-09-12T05:01:59;11.57;;;6.97;;
22026;SDS011;11177;50.966;10.070;2023-09-12T05:04:26;13.77;;;8.18;;
22026;SDS011;11177;50.966;10.070;2023-09-12T05:06:53;14.40;;;8.18;;
22026;SDS011;11177;50.966;10.070;2023-09-12T05:09:20;11.30;;;7.68;;
22026;SDS011;11177;50.966;10.070;2023-09-12T05:11:47;12.30;;;7.85;;
22026;SDS011;11177;50.966;10.070;2023-09-12T05:14:13;17.02;;;8.45;;
22026;SDS011;11177;50.966;10.070;2023-09-12T05:16:40;14.80;;;8.00;;
22026;SDS011;11177;50.966;10.070;2023-09-12T05:19:07;19.02;;;8.45;;
22026;SDS011;11177;50.966;10.070;2023-09-12T05:21:34;17.98;;;8.30;;
22026;SDS011;11177;50.966;10.070;2023-09-12T05:24:01;14.52;;;8.25;;
22026;SDS011;11177;50.966;10.070;2023-09-12T05:26:28;18.20;;;8.35;;
22026;SDS011;11177;50.966;10.070;2023-09-12T05:28:55;14.20;;;7.97;;
22026;SDS011;11177;50.966;10.070;2023-09-12T05:31:22;13.00;;;7.13;;
22026;SDS011;11177;50.966;10.070;2023-09-12T05:33:49;10.40;;;6.38;;
22026;SDS011;11177;50.966;10.070;2023-09-12T05:36:16;8.00;;;5.90;;
22026;SDS011;11177;50.966;10.070;2023-09-12T05:38:43;6.63;;;5.85;;
22026;SDS011;11177;50.966;10.070;2023-09-12T05:41:11;12.95;;;6.43;;
22026;SDS011;11177;50.966;10.070;2023-09-12T05:43:38;10.50;;;6.25;;
22026;SDS011;11177;50.966;10.070;2023-09-12T05:46:04;10.85;;;6.15;;
22026;SDS011;11177;50.966;10.070;2023-09-12T05:48:32;13.95;;;7.18;;
22026;SDS011;11177;50.966;10.070;2023-09-12T05:50:58;14.70;;;7.03;;
22026;SDS011;11177;50.966;10.070;2023-09-12T05:53:25;9.85;;;7.00;;
22026;SDS011;11177;50.966;10.070;2023-09-12T05:55:52;15.65;;;7.68;;
22026;SDS011;11177;50.966;10.070;2023-09-12T05:58:19;13.27;;;7.88;;
22026;SDS011;11177;50.966;10.070;2023-09-12T06:00:46;18.25;;;8.05;;
22026;SDS011;11177;50.966;10.070;2023-09-12T06:03:15;14.80;;;8.65;;
22026;SDS011;11177;50.966;10.070;2023-09-12T06:05:43;15.00;;;6.65;;
22026;SDS011;11177;50.966;10.070;2023-09-12T06:08:10;15.13;;;6.90;;
22026;SDS011;11177;50.966;10.070;2023-09-12T06:10:37;16.98;;;7.43;;
22026;SDS011;11177;50.966;10.070;2023-09-12T06:13:04;9.68;;;7.55;;
22026;SDS011;11177;50.966;10.070;2023-09-12T06:15:31;16.35;;;8.38;;
22026;SDS011;11177;50.966;10.070;2023-09-12T06:17:58;15.10;;;8.00;;
22026;SDS011;11177;50.966;10.070;2023-09-12T06:20:24;12.48;;;8.38;;
22026;SDS011;11177;50.966;10.070;2023-09-12T06:22:51;11.82;;;7.47;;
22026;SDS011;11177;50.966;10.070;2023-09-12T06:25:18;8.52;;;6.60;;
22026;SDS011;11177;50.966;10.070;2023-09-12T06:27:45;8.73;;;6.93;;
22026;SDS011;11177;50.966;10.070;2023-09-12T06:30:12;10.57;;;7.18;;
22026;SDS011;11177;50.966;10.070;2023-09-12T06:32:40;13.77;;;8.98;;
22026;SDS011;11177;50.966;10.070;2023-09-12T06:35:07;19.80;;;9.80;;
22026;SDS011;11177;50.966;10.070;2023-09-12T06:37:37;18.02;;;9.65;;
22026;SDS011;11177;50.966;10.070;2023-09-12T06:40:06;22.42;;;9.98;;
22026;SDS011;11177;50.966;10.070;2023-09-12T06:42:34;19.13;;;9.30;;
22026;SDS011;11177;50.966;10.070;2023-09-12T06:45:01;15.57;;;9.02;;
22026;SDS011;11177;50.966;10.070;2023-09-12T06:47:28;13.93;;;9.18;;
22026;SDS011;11177;50.966;10.070;2023-09-12T06:49:54;15.88;;;9.50;;
22026;SDS011;11177;50.966;10.070;2023-09-12T06:52:22;24.88;;;10.13;;
22026;SDS011;11177;50.966;10.070;2023-09-12T06:54:49;18.30;;;9.63;;
22026;SDS011;11177;50.966;10.070;2023-09-12T06:57:16;18.17;;;9.15;;
22026;SDS011;11177;50.966;10.070;2023-09-12T06:59:42;17.92;;;10.38;;
22026;SDS011;11177;50.966;10.070;2023-09-12T07:02:10;17.02;;;10.20;;
22026;SDS011;11177;50.966;10.070;2023-09-12T07:04:39;19.08;;;10.25;;
22026;SDS011;11177;50.966;10.070;2023-09-12T07:07:06;16.67;;;9.48;;
22026;SDS011;11177;50.966;10.070;2023-09-12T07:09:33;19.35;;;10.50;;
22026;SDS011;11177;50.966;10.070;2023-09-12T07:12:00;14.45;;;9.23;;
22026;SDS011;11177;50.966;10.070;2023-09-12T07:14:27;14.68;;;9.63;;
22026;SDS011;11177;50.966;10.070;2023-09-12T07:16:54;22.67;;;9.90;;
22026;SDS011;11177;50.966;10.070;2023-09-12T07:19:21;20.13;;;9.50;;
22026;SDS011;11177;50.966;10.070;2023-09-12T07:21:47;20.90;;;9.60;;
22026;SDS011;11177;50.966;10.070;2023-09-12T07:24:14;14.43;;;8.70;;
22026;SDS011;11177;50.966;10.070;2023-09-12T07:26:41;18.27;;;9.25;;
22026;SDS011;11177;50.966;10.070;2023-09-12T07:29:08;18.90;;;9.45;;
22026;SDS011;11177;50.966;10.070;2023-09-12T07:31:35;17.23;;;9.35;;
22026;SDS011;11177;50.966;10.070;2023-09-12T07:34:02;23.75;;;9.05;;
22026;SDS011;11177;50.966;10.070;2023-09-12T07:36:32;14.82;;;8.23;;
22026;SDS011;11177;50.966;10.070;2023-09-12T07:38:59;16.02;;;8.70;;
22026;SDS011;11177;50.966;10.070;2023-09-12T07:41:26;17.40;;;8.55;;
22026;SDS011;11177;50.966;10.070;2023-09-12T07:43:53;19.95;;;9.25;;
22026;SDS011;11177;50.966;10.070;2023-09-12T07:46:20;20.77;;;9.20;;
22026;SDS011;11177;50.966;10.070;2023-09-12T07:48:47;15.68;;;9.00;;
22026;SDS011;11177;50.966;10.070;2023-09-12T07:51:14;18.10;;;8.38;;
22026;SDS011;11177;50.966;10.070;2023-09-12T07:53:42;16.58;;;8.70;;
22026;SDS011;11177;50.966;10.070;2023-09-12T07:56:10;16.58;;;8.52;;
22026;SDS011;11177;50.966;10.070;2023-09-12T07:58:37;17.80;;;9.32;;
22026;SDS011;11177;50.966;10.070;2023-09-12T08:01:05;17.08;;;8.35;;
22026;SDS011;11177;50.966;10.070;2023-09-12T08:03:33;15.05;;;8.65;;
22026;SDS011;11177;50.966;10.070;2023-09-12T08:06:02;20.42;;;8.95;;
22026;SDS011;11177;50.966;10.070;2023-09-12T08:08:29;14.77;;;8.57;;
22026;SDS011;11177;50.966;10.070;2023-09-12T08:10:57;18.77;;;8.73;;
22026;SDS011;11177;50.966;10.070;2023-09-12T08:13:25;14.70;;;8.30;;
22026;SDS011;11177;50.966;10.070;2023-09-12T08:15:54;14.98;;;8.48;;
22026;SDS011;11177;50.966;10.070;2023-09-12T08:18:21;18.10;;;8.70;;
22026;SDS011;11177;50.966;10.070;2023-09-12T08:20:48;18.48;;;8.15;;
22026;SDS011;11177;50.966;10.070;2023-09-12T08:23:15;15.10;;;8.63;;
22026;SDS011;11177;50.966;10.070;2023-09-12T08:25:42;12.95;;;7.68;;
22026;SDS011;11177;50.966;10.070;2023-09-12T08:28:09;13.07;;;8.43;;
22026;SDS011;11177;50.966;10.070;2023-09-12T08:30:36;18.88;;;8.73;;
22026;SDS011;11177;50.966;10.070;2023-09-12T08:33:03;15.05;;;8.40;;
22026;SDS011;11177;50.966;10.070;2023-09-12T08:35:30;19.08;;;7.88;;
22026;SDS011;11177;50.966;10.070;2023-09-12T08:37:57;13.20;;;7.15;;
22026;SDS011;11177;50.966;10.070;2023-09-12T08:40:24;16.20;;;8.15;;
22026;SDS011;11177;50.966;10.070;2023-09-12T08:42:51;15.52;;;7.57;;
22026;SDS011;11177;50.966;10.070;2023-09-12T08:45:19;18.67;;;8.20;;
22026;SDS011;11177;50.966;10.070;2023-09-12T08:47:49;16.40;;;7.63;;
22026;SDS011;11177;50.966;10.070;2023-09-12T08:50:18;17.38;;;8.45;;
22026;SDS011;11177;50.966;10.070;2023-09-12T08:52:47;16.65;;;7.75;;
22026;SDS011;11177;50.966;10.070;2023-09-12T08:55:33;16.70;;;7.07;;
22026;SDS011;11177;50.966;10.070;2023-09-12T08:58:03;12.93;;;7.40;;
22026;SDS011;11177;50.966;10.070;2023-09-12T09:00:31;14.63;;;7.32;;
22026;SDS011;11177;50.966;10.070;2023-09-12T09:02:59;11.52;;;7.10;;
22026;SDS011;11177;50.966;10.070;2023-09-12T09:05:27;15.68;;;7.20;;
22026;SDS011;11177;50.966;10.070;2023-09-12T09:07:54;18.00;;;8.18;;
22026;SDS011;11177;50.966;10.070;2023-09-12T09:10:22;16.40;;;7.53;;
22026;SDS011;11177;50.966;10.070;2023-09-12T09:13:07;18.90;;;7.10;;
22026;SDS011;11177;50.966;10.070;2023-09-12T09:15:37;17.80;;;7.40;;
22026;SDS011;11177;50.966;10.070;2023-09-12T09:18:08;15.77;;;7.32;;
22026;SDS011;11177;50.966;10.070;2023-09-12T09:20:38;14.55;;;6.95;;
22026;SDS011;11177;50.966;10.070;2023-09-12T09:23:07;22.45;;;7.45;;
22026;SDS011;11177;50.966;10.070;2023-09-12T09:25:41;21.85;;;7.55;;
22026;SDS011;11177;50.966;10.070;2023-09-12T09:28:19;16.08;;;7.18;;
22026;SDS011;11177;50.966;10.070;2023-09-12T09:30:48;15.48;;;6.93;;
22026;SDS011;11177;50.966;10.070;2023-09-12T09:33:18;15.68;;;6.90;;
22026;SDS011;11177;50.966;10.070;2023-09-12T09:35:45;19.67;;;7.00;;
22026;SDS011;11177;50.966;10.070;2023-09-12T09:38:13;13.95;;;7.13;;
22026;SDS011;11177;50.966;10.070;2023-09-12T09:40:45;15.98;;;6.65;;
22026;SDS011;11177;50.966;10.070;2023-09-12T09:43:12;18.73;;;7.10;;
22026;SDS011;11177;50.966;10.070;2023-09-12T09:45:44;15.50;;;6.68;;
22026;SDS011;11177;50.966;10.070;2023-09-12T09:48:22;15.13;;;6.75;;
22026;SDS011;11177;50.966;10.070;2023-09-12T09:50:59;13.35;;;6.22;;
22026;SDS011;11177;50.966;10.070;2023-09-12T09:53:27;11.95;;;6.65;;
22026;SDS011;11177;50.966;10.070;2023-09-12T09:56:08;16.15;;;6.43;;
22026;SDS011;11177;50.966;10.070;2023-09-12T09:58:51;17.93;;;7.17;;
22026;SDS011;11177;50.966;10.070;2023-09-12T10:01:23;14.35;;;6.95;;
22026;SDS011;11177;50.966;10.070;2023-09-12T10:03:57;15.55;;;5.82;;
22026;SDS011;11177;50.966;10.070;2023-09-12T10:06:25;14.63;;;6.03;;
22026;SDS011;11177;50.966;10.070;2023-09-12T10:08:54;14.75;;;6.18;;
22026;SDS011;11177;50.966;10.070;2023-09-12T10:11:25;18.52;;;6.32;;
22026;SDS011;11177;50.966;10.070;2023-09-12T10:13:58;17.30;;;6.63;;
22026;SDS011;11177;50.966;10.070;2023-09-12T10:16:30;19.52;;;6.28;;
22026;SDS011;11177;50.966;10.070;2023-09-12T10:19:08;16.77;;;5.72;;
22026;SDS011;11177;50.966;10.070;2023-09-12T10:21:49;18.10;;;5.55;;
22026;SDS011;11177;50.966;10.070;2023-09-12T10:24:20;17.00;;;6.13;;
22026;SDS011;11177;50.966;10.070;2023-09-12T10:26:49;17.77;;;6.32;;
22026;SDS011;11177;50.966;10.070;2023-09-12T10:29:17;18.88;;;5.97;;
22026;SDS011;11177;50.966;10.070;2023-09-12T10:31:44;17.30;;;5.90;;
22026;SDS011;11177;50.966;10.070;2023-09-12T10:34:12;18.02;;;5.65;;
22026;SDS011;11177;50.966;10.070;2023-09-12T10:36:44;17.75;;;5.30;;
22026;SDS011;11177;50.966;10.070;2023-09-12T10:39:12;17.70;;;5.47;;
22026;SDS011;11177;50.966;10.070;2023-09-12T10:41:39;14.70;;;5.45;;
22026;SDS011;11177;50.966;10.070;2023-09-12T10:44:10;20.08;;;5.90;;
22026;SDS011;11177;50.966;10.070;2023-09-12T10:46:39;14.52;;;5.80;;
22026;SDS011;11177;50.966;10.070;2023-09-12T10:49:07;13.50;;;5.28;;
22026;SDS011;11177;50.966;10.070;2023-09-12T10:51:37;12.82;;;5.25;;
22026;SDS011;11177;50.966;10.070;2023-09-12T10:54:06;18.58;;;5.88;;
22026;SDS011;11177;50.966;10.070;2023-09-12T10:56:34;17.13;;;5.40;;
22026;SDS011;11177;50.966;10.070;2023-09-12T10:59:11;17.48;;;5.45;;
22026;SDS011;11177;50.966;10.070;2023-09-12T11:01:44;15.77;;;5.97;;
22026;SDS011;11177;50.966;10.070;2023-09-12T11:07:01;15.30;;;5.40;;
22026;SDS011;11177;50.966;10.070;2023-09-12T11:09:28;15.63;;;5.88;;
22026;SDS011;11177;50.966;10.070;2023-09-12T11:11:57;15.30;;;5.97;;
22026;SDS011;11177;50.966;10.070;2023-09-12T11:14:34;15.80;;;5.70;;
22026;SDS011;11177;50.966;10.070;2023-09-12T11:19:55;14.13;;;5.70;;
22026;SDS011;11177;50.966;10.070;2023-09-12T11:22:31;22.83;;;5.63;;
22026;SDS011;11177;50.966;10.070;2023-09-12T11:25:01;15.10;;;5.20;;
22026;SDS011;11177;50.966;10.070;2023-09-12T11:27:32;16.85;;;5.50;;
22026;SDS011;11177;50.966;10.070;2023-09-12T11:30:03;15.63;;;5.30;;
22026;SDS011;11177;50.966;10.070;2023-09-12T11:32:31;15.27;;;5.13;;
22026;SDS011;11177;50.966;10.070;2023-09-12T11:35:04;15.20;;;5.03;;
22026;SDS011;11177;50.966;10.070;2023-09-12T11:37:32;13.75;;;5.47;;
22026;SDS011;11177;50.966;10.070;2023-09-12T11:40:03;16.08;;;5.38;;
22026;SDS011;11177;50.966;10.070;2023-09-12T11:42:43;17.45;;;5.47;;
22026;SDS011;11177;50.966;10.070;2023-09-12T11:45:10;17.13;;;5.80;;
22026;SDS011;11177;50.966;10.070;2023-09-12T11:47:40;17.25;;;5.80;;
22026;SDS011;11177;50.966;10.070;2023-09-12T11:50:08;15.63;;;4.85;;
22026;SDS011;11177;50.966;10.070;2023-09-12T11:53:26;13.90;;;5.28;;
22026;SDS011;11177;50.966;10.070;2023-09-12T11:55:47;16.35;;;5.38;;
22026;SDS011;11177;50.966;10.070;2023-09-12T11:58:15;15.25;;;5.50;;
22026;SDS011;11177;50.966;10.070;2023-09-12T12:00:47;17.85;;;4.82;;
22026;SDS011;11177;50.966;10.070;2023-09-12T12:03:16;17.13;;;5.10;;
22026;SDS011;11177;50.966;10.070;2023-09-12T12:05:44;19.08;;;5.80;;
22026;SDS011;11177;50.966;10.070;2023-09-12T12:08:11;16.95;;;5.00;;
22026;SDS011;11177;50.966;10.070;2023-09-12T12:10:57;14.32;;;5.05;;
22026;SDS011;11177;50.966;10.070;2023-09-12T12:13:27;15.43;;;5.47;;
22026;SDS011;11177;50.966;10.070;2023-09-12T12:15:55;14.02;;;4.90;;
22026;SDS011;11177;50.966;10.070;2023-09-12T12:18:23;16.30;;;5.43;;
22026;SDS011;11177;50.966;10.070;2023-09-12T12:20:53;17.80;;;5.45;;
22026;SDS011;11177;50.966;10.070;2023-09-12T12:23:20;17.73;;;5.50;;
22026;SDS011;11177;50.966;10.070;2023-09-12T12:25:47;19.50;;;5.55;;
22026;SDS011;11177;50.966;10.070;2023-09-12T12:28:15;12.10;;;5.05;;
22026;SDS011;11177;50.966;10.070;2023-09-12T12:30:42;15.55;;;5.70;;
22026;SDS011;11177;50.966;10.070;2023-09-12T12:33:09;12.40;;;5.10;;
22026;SDS011;11177;50.966;10.070;2023-09-12T12:36:03;20.08;;;5.15;;
22026;SDS011;11177;50.966;10.070;2023-09-12T12:38:35;13.18;;;5.22;;
22026;SDS011;11177;50.966;10.070;2023-09-12T12:41:21;18.00;;;5.53;;
22026;SDS011;11177;50.966;10.070;2023-09-12T12:43:51;18.65;;;5.70;;
22026;SDS011;11177;50.966;10.070;2023-09-12T12:46:20;21.48;;;5.50;;
22026;SDS011;11177;50.966;10.070;2023-09-12T12:48:50;17.27;;;5.70;;
22026;SDS011;11177;50.966;10.070;2023-09-12T12:51:21;17.83;;;5.32;;
22026;SDS011;11177;50.966;10.070;2023-09-12T12:53:50;22.92;;;5.32;;
22026;SDS011;11177;50.966;10.070;2023-09-12T12:56:26;16.92;;;5.53;;
22026;SDS011;11177;50.966;10.070;2023-09-12T12:58:57;14.85;;;5.40;;
22026;SDS011;11177;50.966;10.070;2023-09-12T13:01:25;15.48;;;5.57;;
22026;SDS011;11177;50.966;10.070;2023-09-12T13:03:52;12.48;;;5.13;;
22026;SDS011;11177;50.966;10.070;2023-09-12T13:06:21;23.50;;;6.35;;
22026;SDS011;11177;50.966;10.070;2023-09-12T13:08:48;12.20;;;5.30;;
22026;SDS011;11177;50.966;10.070;2023-09-12T13:11:16;15.88;;;6.03;;
22026;SDS011;11177;50.966;10.070;2023-09-12T13:13:44;16.20;;;5.93;;
22026;SDS011;11177;50.966;10.070;2023-09-12T13:16:12;13.35;;;5.57;;
22026;SDS011;11177;50.966;10.070;2023-09-12T13:18:40;19.17;;;5.28;;
22026;SDS011;11177;50.966;10.070;2023-09-12T13:21:07;19.15;;;6.32;;
22026;SDS011;11177;50.966;10.070;2023-09-12T13:23:37;14.73;;;5.82;;
22026;SDS011;11177;50.966;10.070;2023-09-12T13:26:06;18.70;;;6.07;;
22026;SDS011;11177;50.966;10.070;2023-09-12T13:28:34;17.13;;;5.68;;
22026;SDS011;11177;50.966;10.070;2023-09-12T13:31:01;25.95;;;6.38;;
22026;SDS011;11177;50.966;10.070;2023-09-12T13:33:27;18.67;;;5.60;;
22026;SDS011;11177;50.966;10.070;2023-09-12T13:35:54;16.52;;;5.85;;
22026;SDS011;11177;50.966;10.070;2023-09-12T13:38:21;14.60;;;5.40;;
22026;SDS011;11177;50.966;10.070;2023-09-12T13:40:49;17.10;;;5.63;;
22026;SDS011;11177;50.966;10.070;2023-09-12T13:43:16;14.88;;;5.35;;
22026;SDS011;11177;50.966;10.070;2023-09-12T13:45:43;17.02;;;5.45;;
22026;SDS011;11177;50.966;10.070;2023-09-12T13:48:10;19.92;;;5.35;;
22026;SDS011;11177;50.966;10.070;2023-09-12T13:50:39;23.77;;;5.82;;
22026;SDS011;11177;50.966;10.070;2023-09-12T13:53:06;16.30;;;5.15;;
22026;SDS011;11177;50.966;10.070;2023-09-12T13:55:36;18.23;;;5.85;;
22026;SDS011;11177;50.966;10.070;2023-09-12T13:58:09;16.55;;;5.78;;
22026;SDS011;11177;50.966;10.070;2023-09-12T14:00:36;13.98;;;5.55;;
22026;SDS011;11177;50.966;10.070;2023-09-12T14:03:03;11.90;;;5.20;;
22026;SDS011;11177;50.966;10.070;2023-09-12T14:05:31;19.80;;;5.05;;
22026;SDS011;11177;50.966;10.070;2023-09-12T14:07:59;11.70;;;5.35;;
22026;SDS011;11177;50.966;10.070;2023-09-12T14:10:26;13.60;;;5.25;;
22026;SDS011;11177;50.966;10.070;2023-09-12T14:13:03;13.77;;;4.93;;
22026;SDS011;11177;50.966;10.070;2023-09-12T14:15:46;15.35;;;5.05;;
22026;SDS011;11177;50.966;10.070;2023-09-12T14:18:13;16.88;;;5.03;;
22026;SDS011;11177;50.966;10.070;2023-09-12T14:20:41;12.02;;;4.93;;
22026;SDS011;11177;50.966;10.070;2023-09-12T14:23:08;17.05;;;4.95;;
22026;SDS011;11177;50.966;10.070;2023-09-12T14:25:35;12.88;;;5.15;;
22026;SDS011;11177;50.966;10.070;2023-09-12T14:28:04;13.50;;;5.10;;
22026;SDS011;11177;50.966;10.070;2023-09-12T14:30:31;17.73;;;5.00;;
22026;SDS011;11177;50.966;10.070;2023-09-12T14:33:02;16.60;;;5.07;;
22026;SDS011;11177;50.966;10.070;2023-09-12T14:35:30;16.25;;;4.80;;
22026;SDS011;11177;50.966;10.070;2023-09-12T14:37:57;16.15;;;5.50;;